sensor_id;sensor_type;location;lat;lon;timestamp;pressure;altitude;pressure_sealevel;temperature
64394;BMP280;50712;49.506;10.400;2022-10-04T00:00:22;98847.66;;;12.79
64394;BMP280;50712;49.506;10.400;2022-10-04T00:00:57;98845.34;;;12.78
64394;BMP280;50712;49.506;10.400;2022-10-04T00:02:23;98839.56;;;12.76
64394;BMP280;50712;49.506;10.400;2022-10-04T00:03:04;98842.72;;;12.74
64394;BMP280;50712;49.506;10.400;2022-10-04T00:03:41;98835.41;;;12.71
64394;BMP280;50712;49.506;10.400;2022-10-04T00:04:57;98833.09;;;12.70
64394;BMP280;50712;49.506;10.400;2022-10-04T00:05:22;98834.75;;;12.67
64394;BMP280;50712;49.506;10.400;2022-10-04T00:05:55;98839.44;;;12.67
64394;BMP280;50712;49.506;10.400;2022-10-04T00:06:28;98830.94;;;12.65
64394;BMP280;50712;49.506;10.400;2022-10-04T00:07:03;98834.84;;;12.63
64394;BMP280;50712;49.506;10.400;2022-10-04T00:07:37;98831.34;;;12.63
64394;BMP280;50712;49.506;10.400;2022-10-04T00:08:23;98838.00;;;12.62
64394;BMP280;50712;49.506;10.400;2022-10-04T00:08:56;98834.94;;;12.60
64394;BMP280;50712;49.506;10.400;2022-10-04T00:09:56;98832.66;;;12.58
64394;BMP280;50712;49.506;10.400;2022-10-04T00:10:31;98837.81;;;12.56
64394;BMP280;50712;49.506;10.400;2022-10-04T00:11:05;98836.25;;;12.55
64394;BMP280;50712;49.506;10.400;2022-10-04T00:11:43;98835.94;;;12.53
64394;BMP280;50712;49.506;10.400;2022-10-04T00:12:26;98835.16;;;12.53
64394;BMP280;50712;49.506;10.400;2022-10-04T00:13:03;98838.38;;;12.51
64394;BMP280;50712;49.506;10.400;2022-10-04T00:13:45;98836.81;;;12.50
64394;BMP280;50712;49.506;10.400;2022-10-04T00:15:03;98831.44;;;12.47
64394;BMP280;50712;49.506;10.400;2022-10-04T00:15:46;98828.41;;;12.45
64394;BMP280;50712;49.506;10.400;2022-10-04T00:16:20;98821.41;;;12.44
64394;BMP280;50712;49.506;10.400;2022-10-04T00:16:55;98831.56;;;12.43
64394;BMP280;50712;49.506;10.400;2022-10-04T00:17:27;98828.06;;;12.43
64394;BMP280;50712;49.506;10.400;2022-10-04T00:18:40;98831.25;;;12.41
64394;BMP280;50712;49.506;10.400;2022-10-04T00:19:45;98822.69;;;12.39
64394;BMP280;50712;49.506;10.400;2022-10-04T00:21:22;98828.63;;;12.38
64394;BMP280;50712;49.506;10.400;2022-10-04T00:22:23;98829.81;;;12.37
64394;BMP280;50712;49.506;10.400;2022-10-04T00:23:52;98821.63;;;12.37
64394;BMP280;50712;49.506;10.400;2022-10-04T00:25:42;98824.34;;;12.37
64394;BMP280;50712;49.506;10.400;2022-10-04T00:27:23;98817.38;;;12.36
64394;BMP280;50712;49.506;10.400;2022-10-04T00:28:54;98817.78;;;12.34
64394;BMP280;50712;49.506;10.400;2022-10-04T00:30:36;98812.75;;;12.33
64394;BMP280;50712;49.506;10.400;2022-10-04T00:32:22;98815.16;;;12.31
64394;BMP280;50712;49.506;10.400;2022-10-04T00:32:47;98818.66;;;12.31
64394;BMP280;50712;49.506;10.400;2022-10-04T00:34:56;98812.44;;;12.31
64394;BMP280;50712;49.506;10.400;2022-10-04T00:35:59;98808.94;;;12.30
64394;BMP280;50712;49.506;10.400;2022-10-04T00:36:30;98810.16;;;12.29
64394;BMP280;50712;49.506;10.400;2022-10-04T00:37:13;98812.88;;;12.29
64394;BMP280;50712;49.506;10.400;2022-10-04T00:38:27;98816.81;;;12.28
64394;BMP280;50712;49.506;10.400;2022-10-04T00:40:09;98820.38;;;12.25
64394;BMP280;50712;49.506;10.400;2022-10-04T00:40:45;98809.91;;;12.24
64394;BMP280;50712;49.506;10.400;2022-10-04T00:41:23;98812.31;;;12.22
64394;BMP280;50712;49.506;10.400;2022-10-04T00:43:01;98822.91;;;12.20
64394;BMP280;50712;49.506;10.400;2022-10-04T00:43:39;98817.84;;;12.18
64394;BMP280;50712;49.506;10.400;2022-10-04T00:44:26;98811.66;;;12.18
64394;BMP280;50712;49.506;10.400;2022-10-04T00:45:44;98816.78;;;12.16
64394;BMP280;50712;49.506;10.400;2022-10-04T00:46:22;98821.47;;;12.15
64394;BMP280;50712;49.506;10.400;2022-10-04T00:46:57;98814.06;;;12.16
64394;BMP280;50712;49.506;10.400;2022-10-04T00:49:21;98822.25;;;12.16
64394;BMP280;50712;49.506;10.400;2022-10-04T00:49:55;98814.81;;;12.16
64394;BMP280;50712;49.506;10.400;2022-10-04T00:52:18;98820.72;;;12.15
64394;BMP280;50712;49.506;10.400;2022-10-04T00:52:53;98810.56;;;12.15
64394;BMP280;50712;49.506;10.400;2022-10-04T00:53:38;98804.31;;;12.15
64394;BMP280;50712;49.506;10.400;2022-10-04T00:54:20;98809.00;;;12.14
64394;BMP280;50712;49.506;10.400;2022-10-04T00:55:04;98809.44;;;12.13
64394;BMP280;50712;49.506;10.400;2022-10-04T00:55:39;98809.44;;;12.13
64394;BMP280;50712;49.506;10.400;2022-10-04T00:57:01;98810.63;;;12.12
64394;BMP280;50712;49.506;10.400;2022-10-04T00:58:03;98799.41;;;12.10
64394;BMP280;50712;49.506;10.400;2022-10-04T00:59:45;98802.16;;;12.10
64394;BMP280;50712;49.506;10.400;2022-10-04T01:00:19;98806.84;;;12.09
64394;BMP280;50712;49.506;10.400;2022-10-04T01:00:50;98807.25;;;12.08
64394;BMP280;50712;49.506;10.400;2022-10-04T01:01:25;98809.25;;;12.07
64394;BMP280;50712;49.506;10.400;2022-10-04T01:01:59;98807.69;;;12.06
64394;BMP280;50712;49.506;10.400;2022-10-04T01:03:27;98815.88;;;12.06
64394;BMP280;50712;49.506;10.400;2022-10-04T01:04:03;98815.56;;;12.04
64394;BMP280;50712;49.506;10.400;2022-10-04T01:05:41;98824.97;;;12.03
64394;BMP280;50712;49.506;10.400;2022-10-04T01:06:15;98809.00;;;12.02
64394;BMP280;50712;49.506;10.400;2022-10-04T01:06:48;98816.84;;;12.00
64394;BMP280;50712;49.506;10.400;2022-10-04T01:07:21;98818.81;;;11.99
64394;BMP280;50712;49.506;10.400;2022-10-04T01:08:48;98815.00;;;11.97
64394;BMP280;50712;49.506;10.400;2022-10-04T01:09:22;98816.97;;;11.96
64394;BMP280;50712;49.506;10.400;2022-10-04T01:09:55;98824.38;;;11.96
64394;BMP280;50712;49.506;10.400;2022-10-04T01:10:30;98822.09;;;11.94
64394;BMP280;50712;49.506;10.400;2022-10-04T01:11:18;98818.16;;;11.95
64394;BMP280;50712;49.506;10.400;2022-10-04T01:11:58;98813.91;;;11.94
64394;BMP280;50712;49.506;10.400;2022-10-04T01:13:13;98816.97;;;11.96
64394;BMP280;50712;49.506;10.400;2022-10-04T01:14:39;98813.47;;;11.96
64394;BMP280;50712;49.506;10.400;2022-10-04T01:15:13;98813.03;;;11.97
64394;BMP280;50712;49.506;10.400;2022-10-04T01:16:55;98814.25;;;11.96
64394;BMP280;50712;49.506;10.400;2022-10-04T01:17:25;98810.75;;;11.96
64394;BMP280;50712;49.506;10.400;2022-10-04T01:18:41;98808.78;;;11.96
64394;BMP280;50712;49.506;10.400;2022-10-04T01:18:49;98815.44;;;11.95
64394;BMP280;50712;49.506;10.400;2022-10-04T01:19:25;98808.44;;;11.94
64394;BMP280;50712;49.506;10.400;2022-10-04T01:19:59;98813.91;;;11.94
64394;BMP280;50712;49.506;10.400;2022-10-04T01:20:32;98813.13;;;11.94
64394;BMP280;50712;49.506;10.400;2022-10-04T01:21:36;98806.91;;;11.93
64394;BMP280;50712;49.506;10.400;2022-10-04T01:22:10;98813.56;;;11.92
64394;BMP280;50712;49.506;10.400;2022-10-04T01:22:47;98809.31;;;11.91
64394;BMP280;50712;49.506;10.400;2022-10-04T01:24:15;98804.38;;;11.86
64394;BMP280;50712;49.506;10.400;2022-10-04T01:24:46;98801.31;;;11.84
64394;BMP280;50712;49.506;10.400;2022-10-04T01:25:59;98808.72;;;11.83
64394;BMP280;50712;49.506;10.400;2022-10-04T01:26:55;98810.38;;;11.81
64394;BMP280;50712;49.506;10.400;2022-10-04T01:27:34;98812.34;;;11.80
64394;BMP280;50712;49.506;10.400;2022-10-04T01:28:06;98808.84;;;11.80
64394;BMP280;50712;49.506;10.400;2022-10-04T01:28:37;98807.28;;;11.79
64394;BMP280;50712;49.506;10.400;2022-10-04T01:29:15;98803.81;;;11.78
64394;BMP280;50712;49.506;10.400;2022-10-04T01:29:46;98813.97;;;11.78
64394;BMP280;50712;49.506;10.400;2022-10-04T01:30:16;98813.19;;;11.77
64394;BMP280;50712;49.506;10.400;2022-10-04T01:30:47;98804.22;;;11.77
64394;BMP280;50712;49.506;10.400;2022-10-04T01:31:18;98807.72;;;11.77
64394;BMP280;50712;49.506;10.400;2022-10-04T01:31:49;98812.75;;;11.79
64394;BMP280;50712;49.506;10.400;2022-10-04T01:32:21;98813.97;;;11.78
64394;BMP280;50712;49.506;10.400;2022-10-04T01:32:52;98811.22;;;11.78
64394;BMP280;50712;49.506;10.400;2022-10-04T01:33:22;98806.53;;;11.78
64394;BMP280;50712;49.506;10.400;2022-10-04T01:33:54;98815.47;;;11.79
64394;BMP280;50712;49.506;10.400;2022-10-04T01:34:26;98815.47;;;11.79
64394;BMP280;50712;49.506;10.400;2022-10-04T01:34:58;98812.75;;;11.79
64394;BMP280;50712;49.506;10.400;2022-10-04T01:35:28;98809.28;;;11.78
64394;BMP280;50712;49.506;10.400;2022-10-04T01:35:59;98813.97;;;11.78
64394;BMP280;50712;49.506;10.400;2022-10-04T01:36:30;98809.69;;;11.77
64394;BMP280;50712;49.506;10.400;2022-10-04T01:37:01;98817.88;;;11.77
64394;BMP280;50712;49.506;10.400;2022-10-04T01:37:31;98810.47;;;11.77
64394;BMP280;50712;49.506;10.400;2022-10-04T01:38:02;98821.38;;;11.77
64394;BMP280;50712;49.506;10.400;2022-10-04T01:38:36;98814.38;;;11.76
64394;BMP280;50712;49.506;10.400;2022-10-04T01:39:07;98819.06;;;11.76
64394;BMP280;50712;49.506;10.400;2022-10-04T01:39:37;98813.59;;;11.76
64394;BMP280;50712;49.506;10.400;2022-10-04T01:40:08;98813.59;;;11.76
64394;BMP280;50712;49.506;10.400;2022-10-04T01:40:41;98812.13;;;11.75
64394;BMP280;50712;49.506;10.400;2022-10-04T01:41:15;98814.50;;;11.73
64394;BMP280;50712;49.506;10.400;2022-10-04T01:42:34;98822.69;;;11.73
64394;BMP280;50712;49.506;10.400;2022-10-04T01:43:11;98818.44;;;11.72
64394;BMP280;50712;49.506;10.400;2022-10-04T01:43:48;98817.66;;;11.71
64394;BMP280;50712;49.506;10.400;2022-10-04T01:44:29;98805.19;;;11.70
64394;BMP280;50712;49.506;10.400;2022-10-04T01:45:11;98809.09;;;11.69
64394;BMP280;50712;49.506;10.400;2022-10-04T01:45:52;98808.81;;;11.67
64394;BMP280;50712;49.506;10.400;2022-10-04T01:46:28;98813.50;;;11.67
64394;BMP280;50712;49.506;10.400;2022-10-04T01:47:08;98796.78;;;11.65
64394;BMP280;50712;49.506;10.400;2022-10-04T01:48:03;98796.00;;;11.64
64394;BMP280;50712;49.506;10.400;2022-10-04T01:48:37;98802.31;;;11.61
64394;BMP280;50712;49.506;10.400;2022-10-04T01:49:13;98800.03;;;11.60
64394;BMP280;50712;49.506;10.400;2022-10-04T01:49:48;98798.91;;;11.57
64394;BMP280;50712;49.506;10.400;2022-10-04T01:50:23;98792.34;;;11.55
64394;BMP280;50712;49.506;10.400;2022-10-04T01:51:22;98797.50;;;11.53
64394;BMP280;50712;49.506;10.400;2022-10-04T01:52:04;98788.97;;;11.51
64394;BMP280;50712;49.506;10.400;2022-10-04T01:52:42;98792.91;;;11.50
64394;BMP280;50712;49.506;10.400;2022-10-04T01:53:29;98785.91;;;11.49
64394;BMP280;50712;49.506;10.400;2022-10-04T01:54:06;98795.28;;;11.48
64394;BMP280;50712;49.506;10.400;2022-10-04T01:54:44;98793.75;;;11.47
64394;BMP280;50712;49.506;10.400;2022-10-04T01:55:20;98789.03;;;11.47
64394;BMP280;50712;49.506;10.400;2022-10-04T01:56:02;98791.78;;;11.47
64394;BMP280;50712;49.506;10.400;2022-10-04T01:57:22;98794.97;;;11.46
64394;BMP280;50712;49.506;10.400;2022-10-04T01:57:57;98800.44;;;11.46
64394;BMP280;50712;49.506;10.400;2022-10-04T01:58:42;98796.16;;;11.45
64394;BMP280;50712;49.506;10.400;2022-10-04T01:59:18;98796.16;;;11.45
64394;BMP280;50712;49.506;10.400;2022-10-04T01:59:58;98803.16;;;11.46
64394;BMP280;50712;49.506;10.400;2022-10-04T02:00:35;98799.66;;;11.45
64394;BMP280;50712;49.506;10.400;2022-10-04T02:01:14;98797.38;;;11.44
64394;BMP280;50712;49.506;10.400;2022-10-04T02:01:54;98793.09;;;11.43
64394;BMP280;50712;49.506;10.400;2022-10-04T02:02:32;98783.34;;;11.42
64394;BMP280;50712;49.506;10.400;2022-10-04T02:03:07;98794.72;;;11.40
64394;BMP280;50712;49.506;10.400;2022-10-04T02:03:50;98789.69;;;11.39
64394;BMP280;50712;49.506;10.400;2022-10-04T02:04:33;98783.13;;;11.36
64394;BMP280;50712;49.506;10.400;2022-10-04T02:05:09;98790.53;;;11.36
64394;BMP280;50712;49.506;10.400;2022-10-04T02:05:43;98787.03;;;11.35
64394;BMP280;50712;49.506;10.400;2022-10-04T02:06:20;98786.25;;;11.35
64394;BMP280;50712;49.506;10.400;2022-10-04T02:06:51;98785.53;;;11.34
64394;BMP280;50712;49.506;10.400;2022-10-04T02:07:27;98778.53;;;11.33
64394;BMP280;50712;49.506;10.400;2022-10-04T02:08:06;98786.25;;;11.35
64394;BMP280;50712;49.506;10.400;2022-10-04T02:08:43;98779.28;;;11.34
64394;BMP280;50712;49.506;10.400;2022-10-04T02:09:19;98783.13;;;11.36
64394;BMP280;50712;49.506;10.400;2022-10-04T02:09:55;98783.13;;;11.36
64394;BMP280;50712;49.506;10.400;2022-10-04T02:10:28;98782.69;;;11.38
64394;BMP280;50712;49.506;10.400;2022-10-04T02:11:02;98777.22;;;11.38
64394;BMP280;50712;49.506;10.400;2022-10-04T02:11:34;98783.47;;;11.38
64394;BMP280;50712;49.506;10.400;2022-10-04T02:12:06;98780.72;;;11.38
64394;BMP280;50712;49.506;10.400;2022-10-04T02:12:39;98781.50;;;11.39
64394;BMP280;50712;49.506;10.400;2022-10-04T02:13:14;98780.72;;;11.38
64394;BMP280;50712;49.506;10.400;2022-10-04T02:13:49;98777.22;;;11.38
64394;BMP280;50712;49.506;10.400;2022-10-04T02:14:25;98777.66;;;11.36
64394;BMP280;50712;49.506;10.400;2022-10-04T02:14:59;98778.84;;;11.35
64394;BMP280;50712;49.506;10.400;2022-10-04T02:15:32;98771.09;;;11.34
64394;BMP280;50712;49.506;10.400;2022-10-04T02:16:09;98772.69;;;11.31
64394;BMP280;50712;49.506;10.400;2022-10-04T02:16:41;98772.00;;;11.31
64394;BMP280;50712;49.506;10.400;2022-10-04T02:17:14;98772.41;;;11.29
64394;BMP280;50712;49.506;10.400;2022-10-04T02:17:46;98772.00;;;11.31
64394;BMP280;50712;49.506;10.400;2022-10-04T02:18:18;98773.16;;;11.30
64394;BMP280;50712;49.506;10.400;2022-10-04T02:18:50;98779.03;;;11.28
64394;BMP280;50712;49.506;10.400;2022-10-04T02:19:25;98771.28;;;11.27
64394;BMP280;50712;49.506;10.400;2022-10-04T02:20:02;98772.47;;;11.26
64394;BMP280;50712;49.506;10.400;2022-10-04T02:20:40;98774.91;;;11.24
64394;BMP280;50712;49.506;10.400;2022-10-04T02:21:13;98774.19;;;11.20
64394;BMP280;50712;49.506;10.400;2022-10-04T02:21:45;98772.66;;;11.19
64394;BMP280;50712;49.506;10.400;2022-10-04T02:22:17;98772.31;;;11.17
64394;BMP280;50712;49.506;10.400;2022-10-04T02:22:49;98770.81;;;11.16
64394;BMP280;50712;49.506;10.400;2022-10-04T02:23:24;98769.28;;;11.15
64394;BMP280;50712;49.506;10.400;2022-10-04T02:23:56;98773.19;;;11.13
64394;BMP280;50712;49.506;10.400;2022-10-04T02:24:27;98768.91;;;11.12
64394;BMP280;50712;49.506;10.400;2022-10-04T02:24:58;98771.25;;;11.14
64394;BMP280;50712;49.506;10.400;2022-10-04T02:25:28;98774.75;;;11.15
64394;BMP280;50712;49.506;10.400;2022-10-04T02:26:02;98774.75;;;11.15
64394;BMP280;50712;49.506;10.400;2022-10-04T02:26:34;98766.97;;;11.13
64394;BMP280;50712;49.506;10.400;2022-10-04T02:27:04;98766.19;;;11.12
64394;BMP280;50712;49.506;10.400;2022-10-04T02:27:35;98766.19;;;11.12
64394;BMP280;50712;49.506;10.400;2022-10-04T02:28:08;98770.13;;;11.11
64394;BMP280;50712;49.506;10.400;2022-10-04T02:28:40;98768.19;;;11.12
64394;BMP280;50712;49.506;10.400;2022-10-04T02:29:10;98765.09;;;11.10
64394;BMP280;50712;49.506;10.400;2022-10-04T02:29:40;98765.84;;;11.10
64394;BMP280;50712;49.506;10.400;2022-10-04T02:30:11;98754.94;;;11.10
64394;BMP280;50712;49.506;10.400;2022-10-04T02:30:49;98756.91;;;11.10
64394;BMP280;50712;49.506;10.400;2022-10-04T02:31:39;98753.41;;;11.09
64394;BMP280;50712;49.506;10.400;2022-10-04T02:32:29;98754.63;;;11.08
64394;BMP280;50712;49.506;10.400;2022-10-04T02:33:19;98745.69;;;11.08
64394;BMP280;50712;49.506;10.400;2022-10-04T02:33:50;98742.59;;;11.06
64394;BMP280;50712;49.506;10.400;2022-10-04T02:34:24;98749.25;;;11.05
64394;BMP280;50712;49.506;10.400;2022-10-04T02:34:55;98741.50;;;11.03
64394;BMP280;50712;49.506;10.400;2022-10-04T02:35:27;98744.22;;;11.03
64394;BMP280;50712;49.506;10.400;2022-10-04T02:36:03;98745.09;;;11.00
64394;BMP280;50712;49.506;10.400;2022-10-04T02:36:37;98743.09;;;11.01
64394;BMP280;50712;49.506;10.400;2022-10-04T02:37:08;98748.56;;;11.01
64394;BMP280;50712;49.506;10.400;2022-10-04T02:37:39;98752.06;;;11.01
64394;BMP280;50712;49.506;10.400;2022-10-04T02:38:22;98741.59;;;11.00
64394;BMP280;50712;49.506;10.400;2022-10-04T02:39:02;98742.38;;;11.00
64394;BMP280;50712;49.506;10.400;2022-10-04T02:39:47;98735.38;;;10.99
64394;BMP280;50712;49.506;10.400;2022-10-04T02:40:40;98749.00;;;10.99
64394;BMP280;50712;49.506;10.400;2022-10-04T02:41:33;98735.03;;;10.97
64394;BMP280;50712;49.506;10.400;2022-10-04T02:43:21;98738.19;;;10.96
64394;BMP280;50712;49.506;10.400;2022-10-04T02:43:58;98731.97;;;10.95
64394;BMP280;50712;49.506;10.400;2022-10-04T02:44:41;98731.19;;;10.95
64394;BMP280;50712;49.506;10.400;2022-10-04T02:45:18;98738.59;;;10.94
64394;BMP280;50712;49.506;10.400;2022-10-04T02:45:55;98735.09;;;10.94
64394;BMP280;50712;49.506;10.400;2022-10-04T02:47:22;98733.16;;;10.94
64394;BMP280;50712;49.506;10.400;2022-10-04T02:47:46;98728.88;;;10.93
64394;BMP280;50712;49.506;10.400;2022-10-04T02:48:26;98728.88;;;10.93
64394;BMP280;50712;49.506;10.400;2022-10-04T02:49:17;98726.16;;;10.93
64394;BMP280;50712;49.506;10.400;2022-10-04T02:49:59;98728.88;;;10.93
64394;BMP280;50712;49.506;10.400;2022-10-04T02:50:38;98729.34;;;10.92
64394;BMP280;50712;49.506;10.400;2022-10-04T02:51:18;98728.13;;;10.93
64394;BMP280;50712;49.506;10.400;2022-10-04T02:51:51;98726.63;;;10.92
64394;BMP280;50712;49.506;10.400;2022-10-04T02:52:33;98728.13;;;10.93
64394;BMP280;50712;49.506;10.400;2022-10-04T02:53:11;98720.69;;;10.93
64394;BMP280;50712;49.506;10.400;2022-10-04T02:53:55;98724.66;;;10.92
64394;BMP280;50712;49.506;10.400;2022-10-04T02:54:39;98723.91;;;10.92
64394;BMP280;50712;49.506;10.400;2022-10-04T02:55:59;98728.56;;;10.91
64394;BMP280;50712;49.506;10.400;2022-10-04T02:56:32;98727.03;;;10.90
64394;BMP280;50712;49.506;10.400;2022-10-04T02:57:02;98734.44;;;10.90
64394;BMP280;50712;49.506;10.400;2022-10-04T02:57:34;98722.78;;;10.89
64394;BMP280;50712;49.506;10.400;2022-10-04T02:58:07;98732.91;;;10.89
64394;BMP280;50712;49.506;10.400;2022-10-04T02:58:39;98728.97;;;10.90
64394;BMP280;50712;49.506;10.400;2022-10-04T02:59:12;98737.59;;;10.88
64394;BMP280;50712;49.506;10.400;2022-10-04T02:59:45;98729.81;;;10.87
64394;BMP280;50712;49.506;10.400;2022-10-04T03:00:51;98739.22;;;10.86
64394;BMP280;50712;49.506;10.400;2022-10-04T03:01:42;98738.44;;;10.85
64394;BMP280;50712;49.506;10.400;2022-10-04T03:02:28;98739.66;;;10.84
64394;BMP280;50712;49.506;10.400;2022-10-04T03:03:13;98736.16;;;10.84
64394;BMP280;50712;49.506;10.400;2022-10-04T03:03:48;98740.50;;;10.81
64394;BMP280;50712;49.506;10.400;2022-10-04T03:04:19;98739.72;;;10.81
64394;BMP280;50712;49.506;10.400;2022-10-04T03:04:54;98740.16;;;10.79
64394;BMP280;50712;49.506;10.400;2022-10-04T03:05:28;98735.47;;;10.80
64394;BMP280;50712;49.506;10.400;2022-10-04T03:05:59;98748.34;;;10.79
64394;BMP280;50712;49.506;10.400;2022-10-04T03:06:31;98734.72;;;10.79
64394;BMP280;50712;49.506;10.400;2022-10-04T03:07:03;98744.84;;;10.79
64394;BMP280;50712;49.506;10.400;2022-10-04T03:07:37;98748.75;;;10.78
64394;BMP280;50712;49.506;10.400;2022-10-04T03:08:08;98750.72;;;10.77
64394;BMP280;50712;49.506;10.400;2022-10-04T03:09:12;98747.66;;;10.75
64394;BMP280;50712;49.506;10.400;2022-10-04T03:09:44;98758.56;;;10.75
64394;BMP280;50712;49.506;10.400;2022-10-04T03:10:14;98759.00;;;10.74
64394;BMP280;50712;49.506;10.400;2022-10-04T03:10:46;98762.13;;;10.72
64394;BMP280;50712;49.506;10.400;2022-10-04T03:11:17;98761.34;;;10.72
64394;BMP280;50712;49.506;10.400;2022-10-04T03:11:50;98755.91;;;10.72
64394;BMP280;50712;49.506;10.400;2022-10-04T03:12:21;98762.13;;;10.72
64394;BMP280;50712;49.506;10.400;2022-10-04T03:12:51;98763.31;;;10.71
64394;BMP280;50712;49.506;10.400;2022-10-04T03:13:22;98765.25;;;10.71
64394;BMP280;50712;49.506;10.400;2022-10-04T03:13:57;98759.50;;;10.69
64394;BMP280;50712;49.506;10.400;2022-10-04T03:14:29;98769.63;;;10.68
64394;BMP280;50712;49.506;10.400;2022-10-04T03:15:01;98774.31;;;10.68
64394;BMP280;50712;49.506;10.400;2022-10-04T03:15:32;98775.53;;;10.67
64394;BMP280;50712;49.506;10.400;2022-10-04T03:16:02;98771.25;;;10.66
64394;BMP280;50712;49.506;10.400;2022-10-04T03:16:34;98769.72;;;10.65
64394;BMP280;50712;49.506;10.400;2022-10-04T03:17:08;98775.59;;;10.63
64394;BMP280;50712;49.506;10.400;2022-10-04T03:17:39;98766.63;;;10.63
64394;BMP280;50712;49.506;10.400;2022-10-04T03:18:12;98769.78;;;10.61
64394;BMP280;50712;49.506;10.400;2022-10-04T03:18:44;98765.56;;;10.60
64394;BMP280;50712;49.506;10.400;2022-10-04T03:19:16;98761.28;;;10.59
64394;BMP280;50712;49.506;10.400;2022-10-04T03:19:48;98762.47;;;10.58
64394;BMP280;50712;49.506;10.400;2022-10-04T03:20:19;98759.00;;;10.58
64394;BMP280;50712;49.506;10.400;2022-10-04T03:20:52;98754.28;;;10.58
64394;BMP280;50712;49.506;10.400;2022-10-04T03:21:23;98765.19;;;10.58
64394;BMP280;50712;49.506;10.400;2022-10-04T03:21:55;98757.00;;;10.58
64394;BMP280;50712;49.506;10.400;2022-10-04T03:22:29;98760.50;;;10.59
64394;BMP280;50712;49.506;10.400;2022-10-04T03:23:00;98759.34;;;10.60
64394;BMP280;50712;49.506;10.400;2022-10-04T03:23:31;98769.06;;;10.61
64394;BMP280;50712;49.506;10.400;2022-10-04T03:24:03;98763.59;;;10.61
64394;BMP280;50712;49.506;10.400;2022-10-04T03:24:41;98758.91;;;10.61
64394;BMP280;50712;49.506;10.400;2022-10-04T03:25:13;98763.16;;;10.62
64394;BMP280;50712;49.506;10.400;2022-10-04T03:26:00;98761.19;;;10.63
64394;BMP280;50712;49.506;10.400;2022-10-04T03:26:43;98763.16;;;10.62
64394;BMP280;50712;49.506;10.400;2022-10-04T03:27:18;98761.97;;;10.63
64394;BMP280;50712;49.506;10.400;2022-10-04T03:27:51;98753.78;;;10.63
64394;BMP280;50712;49.506;10.400;2022-10-04T03:28:23;98755.75;;;10.63
64394;BMP280;50712;49.506;10.400;2022-10-04T03:28:54;98757.69;;;10.62
64394;BMP280;50712;49.506;10.400;2022-10-04T03:29:27;98759.66;;;10.62
64394;BMP280;50712;49.506;10.400;2022-10-04T03:30:00;98762.38;;;10.62
64394;BMP280;50712;49.506;10.400;2022-10-04T03:30:31;98761.63;;;10.61
64394;BMP280;50712;49.506;10.400;2022-10-04T03:31:03;98761.63;;;10.61
64394;BMP280;50712;49.506;10.400;2022-10-04T03:31:36;98764.34;;;10.61
64394;BMP280;50712;49.506;10.400;2022-10-04T03:32:11;98764.34;;;10.61
64394;BMP280;50712;49.506;10.400;2022-10-04T03:32:45;98763.59;;;10.61
64394;BMP280;50712;49.506;10.400;2022-10-04T03:33:18;98756.16;;;10.61
64394;BMP280;50712;49.506;10.400;2022-10-04T03:33:51;98760.41;;;10.62
64394;BMP280;50712;49.506;10.400;2022-10-04T03:34:25;98759.66;;;10.62
64394;BMP280;50712;49.506;10.400;2022-10-04T03:35:04;98756.91;;;10.62
64394;BMP280;50712;49.506;10.400;2022-10-04T03:35:37;98756.16;;;10.61
64394;BMP280;50712;49.506;10.400;2022-10-04T03:36:11;98750.72;;;10.61
64394;BMP280;50712;49.506;10.400;2022-10-04T03:36:46;98751.94;;;10.60
64394;BMP280;50712;49.506;10.400;2022-10-04T03:37:18;98744.53;;;10.61
64394;BMP280;50712;49.506;10.400;2022-10-04T03:37:50;98755.44;;;10.61
64394;BMP280;50712;49.506;10.400;2022-10-04T03:38:21;98753.44;;;10.61
64394;BMP280;50712;49.506;10.400;2022-10-04T03:38:54;98749.97;;;10.61
64394;BMP280;50712;49.506;10.400;2022-10-04T03:39:27;98753.44;;;10.61
64394;BMP280;50712;49.506;10.400;2022-10-04T03:40:02;98745.72;;;10.60
64394;BMP280;50712;49.506;10.400;2022-10-04T03:40:38;98755.44;;;10.61
64394;BMP280;50712;49.506;10.400;2022-10-04T03:41:14;98752.72;;;10.61
64394;BMP280;50712;49.506;10.400;2022-10-04T03:41:45;98753.88;;;10.60
64394;BMP280;50712;49.506;10.400;2022-10-04T03:42:18;98758.56;;;10.59
64394;BMP280;50712;49.506;10.400;2022-10-04T03:42:51;98741.44;;;10.59
64394;BMP280;50712;49.506;10.400;2022-10-04T03:43:23;98749.63;;;10.59
64394;BMP280;50712;49.506;10.400;2022-10-04T03:43:56;98748.84;;;10.58
64394;BMP280;50712;49.506;10.400;2022-10-04T03:44:26;98748.09;;;10.58
64394;BMP280;50712;49.506;10.400;2022-10-04T03:45:00;98746.13;;;10.58
64394;BMP280;50712;49.506;10.400;2022-10-04T03:45:36;98746.13;;;10.58
64394;BMP280;50712;49.506;10.400;2022-10-04T03:46:08;98739.91;;;10.58
64394;BMP280;50712;49.506;10.400;2022-10-04T03:46:39;98737.94;;;10.58
64394;BMP280;50712;49.506;10.400;2022-10-04T03:47:12;98739.91;;;10.58
64394;BMP280;50712;49.506;10.400;2022-10-04T03:47:49;98742.66;;;10.58
64394;BMP280;50712;49.506;10.400;2022-10-04T03:48:33;98739.16;;;10.57
64394;BMP280;50712;49.506;10.400;2022-10-04T03:49:06;98739.91;;;10.58
64394;BMP280;50712;49.506;10.400;2022-10-04T03:49:37;98736.41;;;10.57
64394;BMP280;50712;49.506;10.400;2022-10-04T03:50:54;98737.59;;;10.56
64394;BMP280;50712;49.506;10.400;2022-10-04T03:51:25;98740.31;;;10.56
64394;BMP280;50712;49.506;10.400;2022-10-04T03:51:56;98736.06;;;10.55
64394;BMP280;50712;49.506;10.400;2022-10-04T03:52:32;98734.53;;;10.54
64394;BMP280;50712;49.506;10.400;2022-10-04T03:53:12;98735.31;;;10.55
64394;BMP280;50712;49.506;10.400;2022-10-04T03:53:48;98727.13;;;10.55
64394;BMP280;50712;49.506;10.400;2022-10-04T03:54:20;98726.38;;;10.54
64394;BMP280;50712;49.506;10.400;2022-10-04T03:54:53;98720.91;;;10.54
64394;BMP280;50712;49.506;10.400;2022-10-04T03:55:46;98724.81;;;10.53
64394;BMP280;50712;49.506;10.400;2022-10-04T03:56:50;98727.88;;;10.55
64394;BMP280;50712;49.506;10.400;2022-10-04T03:57:23;98729.88;;;10.55
64394;BMP280;50712;49.506;10.400;2022-10-04T03:57:55;98729.88;;;10.55